sensor_id;sensor_type;location;lat;lon;timestamp;P1;durP1;ratioP1;P2;durP2;ratioP2
14241;SDS011;7205;50.864;12.766;2023-08-20T00:02:14;5.20;;;4.13;;
14241;SDS011;7205;50.864;12.766;2023-08-20T00:04:48;6.38;;;4.30;;
14241;SDS011;7205;50.864;12.766;2023-08-20T00:07:15;5.35;;;4.43;;
14241;SDS011;7205;50.864;12.766;2023-08-20T00:09:43;9.23;;;4.88;;
14241;SDS011;7205;50.864;12.766;2023-08-20T00:12:10;6.95;;;4.47;;
14241;SDS011;7205;50.864;12.766;2023-08-20T00:14:52;6.55;;;4.38;;
14241;SDS011;7205;50.864;12.766;2023-08-20T00:17:23;6.20;;;5.35;;
14241;SDS011;7205;50.864;12.766;2023-08-20T00:19:52;5.40;;;4.90;;
14241;SDS011;7205;50.864;12.766;2023-08-20T00:22:21;4.45;;;4.05;;
14241;SDS011;7205;50.864;12.766;2023-08-20T00:24:49;11.80;;;5.10;;
14241;SDS011;7205;50.864;12.766;2023-08-20T00:27:16;6.95;;;4.82;;
14241;SDS011;7205;50.864;12.766;2023-08-20T00:29:44;6.82;;;4.32;;
14241;SDS011;7205;50.864;12.766;2023-08-20T00:32:11;4.40;;;4.00;;
14241;SDS011;7205;50.864;12.766;2023-08-20T00:34:40;5.28;;;4.45;;
14241;SDS011;7205;50.864;12.766;2023-08-20T00:37:07;7.80;;;4.70;;
14241;SDS011;7205;50.864;12.766;2023-08-20T00:39:33;6.13;;;4.40;;
14241;SDS011;7205;50.864;12.766;2023-08-20T00:42:00;6.88;;;4.68;;
14241;SDS011;7205;50.864;12.766;2023-08-20T00:44:27;4.88;;;4.40;;
14241;SDS011;7205;50.864;12.766;2023-08-20T00:46:54;5.00;;;4.50;;
14241;SDS011;7205;50.864;12.766;2023-08-20T00:49:22;5.32;;;4.38;;
14241;SDS011;7205;50.864;12.766;2023-08-20T00:51:50;9.23;;;4.47;;
14241;SDS011;7205;50.864;12.766;2023-08-20T00:54:17;5.15;;;4.55;;
14241;SDS011;7205;50.864;12.766;2023-08-20T00:56:44;8.75;;;4.70;;
14241;SDS011;7205;50.864;12.766;2023-08-20T00:59:12;7.63;;;4.82;;
14241;SDS011;7205;50.864;12.766;2023-08-20T01:01:39;7.13;;;4.60;;
14241;SDS011;7205;50.864;12.766;2023-08-20T01:04:05;5.60;;;4.93;;
14241;SDS011;7205;50.864;12.766;2023-08-20T01:06:36;7.57;;;4.57;;
14241;SDS011;7205;50.864;12.766;2023-08-20T01:09:13;9.20;;;5.28;;
14241;SDS011;7205;50.864;12.766;2023-08-20T01:11:49;7.53;;;4.68;;
14241;SDS011;7205;50.864;12.766;2023-08-20T01:14:21;7.95;;;5.22;;
14241;SDS011;7205;50.864;12.766;2023-08-20T01:16:48;5.80;;;4.68;;
14241;SDS011;7205;50.864;12.766;2023-08-20T01:19:16;5.93;;;5.35;;
14241;SDS011;7205;50.864;12.766;2023-08-20T01:21:46;7.45;;;4.85;;
14241;SDS011;7205;50.864;12.766;2023-08-20T01:24:25;5.95;;;5.10;;
14241;SDS011;7205;50.864;12.766;2023-08-20T01:27:10;9.40;;;4.97;;
14241;SDS011;7205;50.864;12.766;2023-08-20T01:29:53;8.93;;;5.25;;
14241;SDS011;7205;50.864;12.766;2023-08-20T01:32:21;5.75;;;5.00;;
14241;SDS011;7205;50.864;12.766;2023-08-20T01:34:49;8.65;;;4.95;;
14241;SDS011;7205;50.864;12.766;2023-08-20T01:37:15;5.97;;;5.22;;
14241;SDS011;7205;50.864;12.766;2023-08-20T01:39:42;7.13;;;5.40;;
14241;SDS011;7205;50.864;12.766;2023-08-20T01:42:09;6.10;;;5.22;;
14241;SDS011;7205;50.864;12.766;2023-08-20T01:44:36;6.43;;;5.85;;
14241;SDS011;7205;50.864;12.766;2023-08-20T01:47:05;6.63;;;5.55;;
14241;SDS011;7205;50.864;12.766;2023-08-20T01:49:31;11.57;;;5.18;;
14241;SDS011;7205;50.864;12.766;2023-08-20T01:51:58;7.22;;;5.72;;
14241;SDS011;7205;50.864;12.766;2023-08-20T01:54:25;8.05;;;5.43;;
14241;SDS011;7205;50.864;12.766;2023-08-20T01:56:52;6.57;;;5.97;;
14241;SDS011;7205;50.864;12.766;2023-08-20T01:59:21;13.27;;;5.38;;
14241;SDS011;7205;50.864;12.766;2023-08-20T02:01:48;7.15;;;5.43;;
14241;SDS011;7205;50.864;12.766;2023-08-20T02:04:17;6.63;;;5.72;;
14241;SDS011;7205;50.864;12.766;2023-08-20T02:06:43;6.45;;;5.80;;
14241;SDS011;7205;50.864;12.766;2023-08-20T02:09:12;9.23;;;5.95;;
14241;SDS011;7205;50.864;12.766;2023-08-20T02:11:40;10.45;;;5.80;;
14241;SDS011;7205;50.864;12.766;2023-08-20T02:14:07;8.05;;;5.75;;
14241;SDS011;7205;50.864;12.766;2023-08-20T02:16:33;6.45;;;5.65;;
14241;SDS011;7205;50.864;12.766;2023-08-20T02:19:00;10.38;;;5.85;;
14241;SDS011;7205;50.864;12.766;2023-08-20T02:21:30;10.23;;;5.88;;
14241;SDS011;7205;50.864;12.766;2023-08-20T02:23:57;12.45;;;5.97;;
14241;SDS011;7205;50.864;12.766;2023-08-20T02:26:24;8.25;;;5.88;;
14241;SDS011;7205;50.864;12.766;2023-08-20T02:28:50;6.15;;;5.65;;
14241;SDS011;7205;50.864;12.766;2023-08-20T02:31:17;7.30;;;6.60;;
14241;SDS011;7205;50.864;12.766;2023-08-20T02:33:46;7.68;;;6.47;;
14241;SDS011;7205;50.864;12.766;2023-08-20T02:36:13;7.75;;;6.05;;
14241;SDS011;7205;50.864;12.766;2023-08-20T02:38:41;7.05;;;6.10;;
14241;SDS011;7205;50.864;12.766;2023-08-20T02:41:08;6.68;;;5.97;;
14241;SDS011;7205;50.864;12.766;2023-08-20T02:43:35;9.15;;;6.65;;
14241;SDS011;7205;50.864;12.766;2023-08-20T02:46:02;8.95;;;7.13;;
14241;SDS011;7205;50.864;12.766;2023-08-20T02:48:28;7.55;;;6.78;;
14241;SDS011;7205;50.864;12.766;2023-08-20T02:50:55;9.37;;;6.80;;
14241;SDS011;7205;50.864;12.766;2023-08-20T02:53:22;12.70;;;7.10;;
14241;SDS011;7205;50.864;12.766;2023-08-20T02:55:50;12.32;;;6.93;;
14241;SDS011;7205;50.864;12.766;2023-08-20T02:58:17;8.93;;;7.00;;
14241;SDS011;7205;50.864;12.766;2023-08-20T03:00:44;8.48;;;7.30;;
14241;SDS011;7205;50.864;12.766;2023-08-20T03:03:11;11.40;;;7.60;;
14241;SDS011;7205;50.864;12.766;2023-08-20T03:05:39;9.10;;;6.85;;
14241;SDS011;7205;50.864;12.766;2023-08-20T03:08:06;11.15;;;7.80;;
14241;SDS011;7205;50.864;12.766;2023-08-20T03:10:33;7.80;;;7.07;;
14241;SDS011;7205;50.864;12.766;2023-08-20T03:13:02;7.82;;;7.03;;
14241;SDS011;7205;50.864;12.766;2023-08-20T03:15:29;7.00;;;6.40;;
14241;SDS011;7205;50.864;12.766;2023-08-20T03:17:57;9.47;;;7.27;;
14241;SDS011;7205;50.864;12.766;2023-08-20T03:20:23;12.47;;;7.50;;
14241;SDS011;7205;50.864;12.766;2023-08-20T03:22:50;10.75;;;7.28;;
14241;SDS011;7205;50.864;12.766;2023-08-20T03:25:18;9.65;;;7.38;;
14241;SDS011;7205;50.864;12.766;2023-08-20T03:27:45;10.50;;;7.67;;
14241;SDS011;7205;50.864;12.766;2023-08-20T03:30:14;10.87;;;6.67;;
14241;SDS011;7205;50.864;12.766;2023-08-20T03:32:43;10.40;;;7.47;;
14241;SDS011;7205;50.864;12.766;2023-08-20T03:35:10;8.43;;;7.35;;
14241;SDS011;7205;50.864;12.766;2023-08-20T03:37:37;8.02;;;7.00;;
14241;SDS011;7205;50.864;12.766;2023-08-20T03:40:04;8.87;;;7.80;;
14241;SDS011;7205;50.864;12.766;2023-08-20T03:42:32;8.57;;;7.50;;
14241;SDS011;7205;50.864;12.766;2023-08-20T03:44:59;7.67;;;7.00;;
14241;SDS011;7205;50.864;12.766;2023-08-20T03:47:27;8.40;;;7.63;;
14241;SDS011;7205;50.864;12.766;2023-08-20T03:49:54;10.88;;;7.45;;
14241;SDS011;7205;50.864;12.766;2023-08-20T03:52:21;9.95;;;7.68;;
14241;SDS011;7205;50.864;12.766;2023-08-20T03:54:48;10.90;;;7.27;;
14241;SDS011;7205;50.864;12.766;2023-08-20T03:57:15;10.75;;;7.88;;
14241;SDS011;7205;50.864;12.766;2023-08-20T03:59:43;10.07;;;7.53;;
14241;SDS011;7205;50.864;12.766;2023-08-20T04:02:12;12.33;;;8.00;;
14241;SDS011;7205;50.864;12.766;2023-08-20T04:04:41;8.73;;;7.67;;
14241;SDS011;7205;50.864;12.766;2023-08-20T04:07:07;8.00;;;7.20;;
14241;SDS011;7205;50.864;12.766;2023-08-20T04:09:34;11.90;;;7.77;;
14241;SDS011;7205;50.864;12.766;2023-08-20T04:12:01;8.57;;;7.83;;
14241;SDS011;7205;50.864;12.766;2023-08-20T04:14:29;11.33;;;8.03;;
14241;SDS011;7205;50.864;12.766;2023-08-20T04:16:56;9.73;;;8.30;;
14241;SDS011;7205;50.864;12.766;2023-08-20T04:19:23;15.80;;;8.17;;
14241;SDS011;7205;50.864;12.766;2023-08-20T04:21:51;11.87;;;8.97;;
14241;SDS011;7205;50.864;12.766;2023-08-20T04:24:18;10.13;;;8.50;;
14241;SDS011;7205;50.864;12.766;2023-08-20T04:26:46;11.40;;;8.50;;
14241;SDS011;7205;50.864;12.766;2023-08-20T04:29:17;10.97;;;8.80;;
14241;SDS011;7205;50.864;12.766;2023-08-20T04:31:44;9.60;;;8.60;;
14241;SDS011;7205;50.864;12.766;2023-08-20T04:34:11;10.03;;;9.00;;
14241;SDS011;7205;50.864;12.766;2023-08-20T04:36:47;10.43;;;8.80;;
14241;SDS011;7205;50.864;12.766;2023-08-20T04:39:15;17.37;;;10.77;;
14241;SDS011;7205;50.864;12.766;2023-08-20T04:41:47;13.20;;;9.30;;
14241;SDS011;7205;50.864;12.766;2023-08-20T04:44:16;10.73;;;9.20;;
14241;SDS011;7205;50.864;12.766;2023-08-20T04:46:44;13.07;;;8.70;;
14241;SDS011;7205;50.864;12.766;2023-08-20T04:49:11;9.77;;;8.87;;
14241;SDS011;7205;50.864;12.766;2023-08-20T04:51:38;15.00;;;9.40;;
14241;SDS011;7205;50.864;12.766;2023-08-20T04:54:06;15.67;;;9.40;;
14241;SDS011;7205;50.864;12.766;2023-08-20T04:56:34;11.37;;;10.27;;
14241;SDS011;7205;50.864;12.766;2023-08-20T04:59:01;16.48;;;11.55;;
14241;SDS011;7205;50.864;12.766;2023-08-20T05:01:47;13.77;;;11.00;;
14241;SDS011;7205;50.864;12.766;2023-08-20T05:04:16;13.27;;;11.40;;
14241;SDS011;7205;50.864;12.766;2023-08-20T05:06:43;14.03;;;11.93;;
14241;SDS011;7205;50.864;12.766;2023-08-20T05:09:10;12.53;;;11.27;;
14241;SDS011;7205;50.864;12.766;2023-08-20T05:11:38;13.07;;;11.77;;
14241;SDS011;7205;50.864;12.766;2023-08-20T05:14:05;14.47;;;11.90;;
14241;SDS011;7205;50.864;12.766;2023-08-20T05:16:32;12.87;;;11.57;;
14241;SDS011;7205;50.864;12.766;2023-08-20T05:18:59;14.30;;;12.80;;
14241;SDS011;7205;50.864;12.766;2023-08-20T05:21:26;13.63;;;12.23;;
14241;SDS011;7205;50.864;12.766;2023-08-20T05:23:52;13.93;;;12.50;;
14241;SDS011;7205;50.864;12.766;2023-08-20T05:26:19;25.00;;;14.67;;
14241;SDS011;7205;50.864;12.766;2023-08-20T05:28:47;15.87;;;13.47;;
14241;SDS011;7205;50.864;12.766;2023-08-20T05:31:14;14.53;;;12.83;;
14241;SDS011;7205;50.864;12.766;2023-08-20T05:33:41;18.10;;;14.47;;
14241;SDS011;7205;50.864;12.766;2023-08-20T05:36:08;16.60;;;14.03;;
14241;SDS011;7205;50.864;12.766;2023-08-20T05:38:35;16.93;;;13.83;;
14241;SDS011;7205;50.864;12.766;2023-08-20T05:41:02;14.50;;;13.00;;
14241;SDS011;7205;50.864;12.766;2023-08-20T05:43:29;16.90;;;15.00;;
14241;SDS011;7205;50.864;12.766;2023-08-20T05:45:57;15.60;;;13.83;;
14241;SDS011;7205;50.864;12.766;2023-08-20T05:48:24;16.58;;;14.18;;
14241;SDS011;7205;50.864;12.766;2023-08-20T05:50:51;19.83;;;14.73;;
14241;SDS011;7205;50.864;12.766;2023-08-20T05:53:18;15.27;;;13.20;;
14241;SDS011;7205;50.864;12.766;2023-08-20T05:55:46;14.55;;;12.77;;
14241;SDS011;7205;50.864;12.766;2023-08-20T05:58:12;18.10;;;12.93;;
14241;SDS011;7205;50.864;12.766;2023-08-20T06:00:40;16.15;;;12.73;;
14241;SDS011;7205;50.864;12.766;2023-08-20T06:03:09;15.43;;;13.75;;
14241;SDS011;7205;50.864;12.766;2023-08-20T06:05:35;14.50;;;13.10;;
14241;SDS011;7205;50.864;12.766;2023-08-20T06:08:02;15.82;;;13.48;;
14241;SDS011;7205;50.864;12.766;2023-08-20T06:10:29;14.23;;;12.95;;
14241;SDS011;7205;50.864;12.766;2023-08-20T06:12:56;14.18;;;12.77;;
14241;SDS011;7205;50.864;12.766;2023-08-20T06:15:23;13.95;;;12.57;;
14241;SDS011;7205;50.864;12.766;2023-08-20T06:17:50;13.88;;;11.93;;
14241;SDS011;7205;50.864;12.766;2023-08-20T06:20:18;14.23;;;11.82;;
14241;SDS011;7205;50.864;12.766;2023-08-20T06:22:45;16.65;;;12.40;;
14241;SDS011;7205;50.864;12.766;2023-08-20T06:25:12;15.30;;;11.82;;
14241;SDS011;7205;50.864;12.766;2023-08-20T06:27:38;15.45;;;11.90;;
14241;SDS011;7205;50.864;12.766;2023-08-20T06:30:05;12.23;;;11.07;;
14241;SDS011;7205;50.864;12.766;2023-08-20T06:32:33;12.60;;;11.30;;
14241;SDS011;7205;50.864;12.766;2023-08-20T06:35:00;13.38;;;12.07;;
14241;SDS011;7205;50.864;12.766;2023-08-20T06:37:28;13.75;;;12.38;;
14241;SDS011;7205;50.864;12.766;2023-08-20T06:39:55;12.90;;;11.63;;
14241;SDS011;7205;50.864;12.766;2023-08-20T06:42:22;14.02;;;12.63;;
14241;SDS011;7205;50.864;12.766;2023-08-20T06:44:49;13.27;;;11.65;;
14241;SDS011;7205;50.864;12.766;2023-08-20T06:47:15;13.60;;;12.20;;
14241;SDS011;7205;50.864;12.766;2023-08-20T06:49:42;13.10;;;11.40;;
14241;SDS011;7205;50.864;12.766;2023-08-20T06:52:09;11.65;;;10.45;;
14241;SDS011;7205;50.864;12.766;2023-08-20T06:54:37;12.10;;;10.90;;
14241;SDS011;7205;50.864;12.766;2023-08-20T06:57:04;13.27;;;10.93;;
14241;SDS011;7205;50.864;12.766;2023-08-20T06:59:31;14.35;;;11.73;;
14241;SDS011;7205;50.864;12.766;2023-08-20T07:01:57;12.93;;;11.75;;
14241;SDS011;7205;50.864;12.766;2023-08-20T07:04:24;17.23;;;11.48;;
14241;SDS011;7205;50.864;12.766;2023-08-20T07:06:51;12.43;;;11.15;;
14241;SDS011;7205;50.864;12.766;2023-08-20T07:09:18;12.25;;;10.50;;
14241;SDS011;7205;50.864;12.766;2023-08-20T07:11:46;11.45;;;9.88;;
14241;SDS011;7205;50.864;12.766;2023-08-20T07:14:13;12.13;;;10.93;;
14241;SDS011;7205;50.864;12.766;2023-08-20T07:16:40;12.77;;;11.48;;
14241;SDS011;7205;50.864;12.766;2023-08-20T07:19:06;10.82;;;9.82;;
14241;SDS011;7205;50.864;12.766;2023-08-20T07:21:33;12.55;;;11.15;;
14241;SDS011;7205;50.864;12.766;2023-08-20T07:24:00;11.00;;;9.93;;
14241;SDS011;7205;50.864;12.766;2023-08-20T07:26:27;11.15;;;10.25;;
14241;SDS011;7205;50.864;12.766;2023-08-20T07:28:55;10.13;;;8.98;;
14241;SDS011;7205;50.864;12.766;2023-08-20T07:31:25;11.25;;;10.02;;
14241;SDS011;7205;50.864;12.766;2023-08-20T07:33:52;11.88;;;10.73;;
14241;SDS011;7205;50.864;12.766;2023-08-20T07:36:21;10.30;;;9.50;;
14241;SDS011;7205;50.864;12.766;2023-08-20T07:38:48;9.75;;;9.05;;
14241;SDS011;7205;50.864;12.766;2023-08-20T07:41:16;12.38;;;10.40;;
14241;SDS011;7205;50.864;12.766;2023-08-20T07:43:45;10.65;;;9.60;;
14241;SDS011;7205;50.864;12.766;2023-08-20T07:46:13;9.82;;;9.13;;
14241;SDS011;7205;50.864;12.766;2023-08-20T07:48:40;12.18;;;9.63;;
14241;SDS011;7205;50.864;12.766;2023-08-20T07:51:07;9.10;;;8.30;;
14241;SDS011;7205;50.864;12.766;2023-08-20T07:53:34;11.05;;;9.95;;
14241;SDS011;7205;50.864;12.766;2023-08-20T07:56:01;11.27;;;10.25;;
14241;SDS011;7205;50.864;12.766;2023-08-20T07:58:28;12.75;;;9.63;;
14241;SDS011;7205;50.864;12.766;2023-08-20T08:00:55;11.30;;;10.20;;
14241;SDS011;7205;50.864;12.766;2023-08-20T08:03:24;10.57;;;9.77;;
14241;SDS011;7205;50.864;12.766;2023-08-20T08:05:52;9.55;;;8.52;;
14241;SDS011;7205;50.864;12.766;2023-08-20T08:08:20;10.50;;;9.50;;
14241;SDS011;7205;50.864;12.766;2023-08-20T08:10:47;10.10;;;9.20;;
14241;SDS011;7205;50.864;12.766;2023-08-20T08:13:19;10.10;;;9.40;;
14241;SDS011;7205;50.864;12.766;2023-08-20T08:15:46;11.00;;;10.07;;
14241;SDS011;7205;50.864;12.766;2023-08-20T08:18:14;11.20;;;10.10;;
14241;SDS011;7205;50.864;12.766;2023-08-20T08:20:42;11.43;;;10.43;;
14241;SDS011;7205;50.864;12.766;2023-08-20T08:23:09;11.30;;;10.07;;
14241;SDS011;7205;50.864;12.766;2023-08-20T08:25:35;10.63;;;9.55;;
14241;SDS011;7205;50.864;12.766;2023-08-20T08:28:03;11.95;;;9.25;;
14241;SDS011;7205;50.864;12.766;2023-08-20T08:30:30;11.00;;;9.93;;
14241;SDS011;7205;50.864;12.766;2023-08-20T08:32:57;10.10;;;9.20;;
14241;SDS011;7205;50.864;12.766;2023-08-20T08:35:24;11.10;;;10.20;;
14241;SDS011;7205;50.864;12.766;2023-08-20T08:37:52;9.80;;;9.00;;
14241;SDS011;7205;50.864;12.766;2023-08-20T08:40:19;9.50;;;8.70;;
14241;SDS011;7205;50.864;12.766;2023-08-20T08:42:47;9.85;;;9.05;;
14241;SDS011;7205;50.864;12.766;2023-08-20T08:45:15;10.63;;;9.60;;
14241;SDS011;7205;50.864;12.766;2023-08-20T08:47:44;9.65;;;8.95;;
14241;SDS011;7205;50.864;12.766;2023-08-20T08:50:10;10.20;;;9.40;;
14241;SDS011;7205;50.864;12.766;2023-08-20T08:52:37;10.65;;;9.65;;
14241;SDS011;7205;50.864;12.766;2023-08-20T08:55:07;9.38;;;8.55;;
14241;SDS011;7205;50.864;12.766;2023-08-20T08:57:34;8.95;;;8.13;;
14241;SDS011;7205;50.864;12.766;2023-08-20T09:00:02;7.65;;;7.05;;
14241;SDS011;7205;50.864;12.766;2023-08-20T09:02:29;8.10;;;7.40;;
14241;SDS011;7205;50.864;12.766;2023-08-20T09:04:56;9.27;;;8.50;;
14241;SDS011;7205;50.864;12.766;2023-08-20T09:07:23;9.63;;;8.88;;
14241;SDS011;7205;50.864;12.766;2023-08-20T09:09:50;10.32;;;9.43;;
14241;SDS011;7205;50.864;12.766;2023-08-20T09:12:18;9.73;;;8.90;;
14241;SDS011;7205;50.864;12.766;2023-08-20T09:14:46;9.00;;;8.32;;
14241;SDS011;7205;50.864;12.766;2023-08-20T09:17:14;9.65;;;8.68;;
14241;SDS011;7205;50.864;12.766;2023-08-20T09:19:42;12.00;;;8.15;;
14241;SDS011;7205;50.864;12.766;2023-08-20T09:22:10;9.32;;;8.00;;
14241;SDS011;7205;50.864;12.766;2023-08-20T09:24:39;10.05;;;8.25;;
14241;SDS011;7205;50.864;12.766;2023-08-20T09:27:08;8.30;;;7.60;;
14241;SDS011;7205;50.864;12.766;2023-08-20T09:29:45;8.70;;;7.90;;
14241;SDS011;7205;50.864;12.766;2023-08-20T09:32:15;9.35;;;8.38;;
14241;SDS011;7205;50.864;12.766;2023-08-20T09:34:43;8.70;;;7.78;;
14241;SDS011;7205;50.864;12.766;2023-08-20T09:37:10;8.00;;;7.47;;
14241;SDS011;7205;50.864;12.766;2023-08-20T09:39:38;8.40;;;7.70;;
14241;SDS011;7205;50.864;12.766;2023-08-20T09:42:06;8.57;;;7.75;;
14241;SDS011;7205;50.864;12.766;2023-08-20T09:44:34;8.02;;;7.43;;
14241;SDS011;7205;50.864;12.766;2023-08-20T09:47:05;8.20;;;7.30;;
14241;SDS011;7205;50.864;12.766;2023-08-20T09:49:33;8.57;;;7.70;;
14241;SDS011;7205;50.864;12.766;2023-08-20T09:52:03;8.02;;;7.22;;
14241;SDS011;7205;50.864;12.766;2023-08-20T09:54:35;8.05;;;7.35;;
14241;SDS011;7205;50.864;12.766;2023-08-20T09:57:12;7.40;;;6.80;;
14241;SDS011;7205;50.864;12.766;2023-08-20T09:59:49;7.88;;;7.13;;
14241;SDS011;7205;50.864;12.766;2023-08-20T10:02:19;8.60;;;7.82;;
14241;SDS011;7205;50.864;12.766;2023-08-20T10:04:46;8.27;;;7.43;;
14241;SDS011;7205;50.864;12.766;2023-08-20T10:07:15;7.57;;;6.88;;
14241;SDS011;7205;50.864;12.766;2023-08-20T10:09:42;11.35;;;7.68;;
14241;SDS011;7205;50.864;12.766;2023-08-20T10:12:11;8.27;;;7.57;;
14241;SDS011;7205;50.864;12.766;2023-08-20T10:14:39;8.23;;;7.45;;
14241;SDS011;7205;50.864;12.766;2023-08-20T10:17:07;8.65;;;8.02;;
14241;SDS011;7205;50.864;12.766;2023-08-20T10:19:36;8.38;;;7.68;;
14241;SDS011;7205;50.864;12.766;2023-08-20T10:22:04;8.43;;;7.40;;
14241;SDS011;7205;50.864;12.766;2023-08-20T10:24:47;7.68;;;7.07;;
14241;SDS011;7205;50.864;12.766;2023-08-20T10:27:23;8.65;;;7.55;;
14241;SDS011;7205;50.864;12.766;2023-08-20T10:29:52;9.57;;;7.65;;
14241;SDS011;7205;50.864;12.766;2023-08-20T10:32:19;8.88;;;7.70;;
14241;SDS011;7205;50.864;12.766;2023-08-20T10:34:50;7.82;;;7.13;;
14241;SDS011;7205;50.864;12.766;2023-08-20T10:37:25;8.15;;;7.50;;
14241;SDS011;7205;50.864;12.766;2023-08-20T10:39:53;7.85;;;7.10;;
14241;SDS011;7205;50.864;12.766;2023-08-20T10:42:21;8.00;;;6.82;;
14241;SDS011;7205;50.864;12.766;2023-08-20T10:44:58;8.05;;;7.35;;
14241;SDS011;7205;50.864;12.766;2023-08-20T10:47:26;7.30;;;6.70;;
14241;SDS011;7205;50.864;12.766;2023-08-20T10:50:02;7.45;;;6.88;;
14241;SDS011;7205;50.864;12.766;2023-08-20T10:52:29;8.40;;;7.57;;
14241;SDS011;7205;50.864;12.766;2023-08-20T10:54:56;7.07;;;6.55;;
14241;SDS011;7205;50.864;12.766;2023-08-20T10:57:27;7.88;;;6.70;;
14241;SDS011;7205;50.864;12.766;2023-08-20T10:59:59;7.57;;;6.88;;
14241;SDS011;7205;50.864;12.766;2023-08-20T11:02:34;7.55;;;6.88;;
14241;SDS011;7205;50.864;12.766;2023-08-20T11:05:03;7.20;;;6.50;;
14241;SDS011;7205;50.864;12.766;2023-08-20T11:07:30;6.90;;;6.40;;
14241;SDS011;7205;50.864;12.766;2023-08-20T11:09:59;8.20;;;6.72;;
14241;SDS011;7205;50.864;12.766;2023-08-20T11:12:28;7.38;;;6.70;;
14241;SDS011;7205;50.864;12.766;2023-08-20T11:14:59;7.57;;;6.80;;
14241;SDS011;7205;50.864;12.766;2023-08-20T11:17:26;7.75;;;6.95;;
14241;SDS011;7205;50.864;12.766;2023-08-20T11:19:53;7.75;;;6.97;;
14241;SDS011;7205;50.864;12.766;2023-08-20T11:22:22;7.25;;;6.75;;
14241;SDS011;7205;50.864;12.766;2023-08-20T11:24:48;7.40;;;6.38;;
14241;SDS011;7205;50.864;12.766;2023-08-20T11:27:15;8.85;;;7.35;;
14241;SDS011;7205;50.864;12.766;2023-08-20T11:29:42;7.68;;;6.68;;
14241;SDS011;7205;50.864;12.766;2023-08-20T11:32:09;6.45;;;5.95;;
14241;SDS011;7205;50.864;12.766;2023-08-20T11:34:36;7.78;;;6.63;;
14241;SDS011;7205;50.864;12.766;2023-08-20T11:37:04;7.75;;;6.72;;
14241;SDS011;7205;50.864;12.766;2023-08-20T11:39:32;7.38;;;6.68;;
14241;SDS011;7205;50.864;12.766;2023-08-20T11:41:59;6.90;;;6.30;;
14241;SDS011;7205;50.864;12.766;2023-08-20T11:44:27;7.40;;;6.78;;
14241;SDS011;7205;50.864;12.766;2023-08-20T11:46:54;6.68;;;6.28;;
14241;SDS011;7205;50.864;12.766;2023-08-20T11:49:26;7.15;;;6.57;;
14241;SDS011;7205;50.864;12.766;2023-08-20T11:51:55;7.30;;;6.65;;
14241;SDS011;7205;50.864;12.766;2023-08-20T11:54:22;7.47;;;6.78;;
14241;SDS011;7205;50.864;12.766;2023-08-20T11:56:52;7.75;;;6.97;;
14241;SDS011;7205;50.864;12.766;2023-08-20T11:59:28;7.13;;;6.43;;
14241;SDS011;7205;50.864;12.766;2023-08-20T12:01:56;7.53;;;6.65;;
14241;SDS011;7205;50.864;12.766;2023-08-20T12:04:25;6.82;;;6.13;;
14241;SDS011;7205;50.864;12.766;2023-08-20T12:07:01;6.80;;;6.20;;
14241;SDS011;7205;50.864;12.766;2023-08-20T12:09:30;6.95;;;6.35;;
14241;SDS011;7205;50.864;12.766;2023-08-20T12:11:59;7.15;;;6.40;;
14241;SDS011;7205;50.864;12.766;2023-08-20T12:14:26;6.75;;;6.15;;
14241;SDS011;7205;50.864;12.766;2023-08-20T12:16:53;6.30;;;5.75;;
14241;SDS011;7205;50.864;12.766;2023-08-20T12:19:21;7.13;;;6.60;;
14241;SDS011;7205;50.864;12.766;2023-08-20T12:21:48;6.28;;;5.78;;
14241;SDS011;7205;50.864;12.766;2023-08-20T12:24:15;6.93;;;6.35;;
14241;SDS011;7205;50.864;12.766;2023-08-20T12:26:44;7.00;;;6.45;;
14241;SDS011;7205;50.864;12.766;2023-08-20T12:29:12;6.85;;;6.25;;
14241;SDS011;7205;50.864;12.766;2023-08-20T12:31:40;6.68;;;6.18;;
14241;SDS011;7205;50.864;12.766;2023-08-20T12:34:07;6.05;;;5.65;;
14241;SDS011;7205;50.864;12.766;2023-08-20T12:36:34;6.53;;;5.97;;
14241;SDS011;7205;50.864;12.766;2023-08-20T12:39:01;7.72;;;6.25;;
14241;SDS011;7205;50.864;12.766;2023-08-20T12:41:29;8.52;;;6.53;;
14241;SDS011;7205;50.864;12.766;2023-08-20T12:43:56;6.60;;;6.10;;
14241;SDS011;7205;50.864;12.766;2023-08-20T12:46:25;6.70;;;6.18;;
14241;SDS011;7205;50.864;12.766;2023-08-20T12:48:52;6.32;;;5.82;;
14241;SDS011;7205;50.864;12.766;2023-08-20T12:51:18;6.75;;;6.15;;
14241;SDS011;7205;50.864;12.766;2023-08-20T12:53:45;5.93;;;5.45;;
14241;SDS011;7205;50.864;12.766;2023-08-20T12:56:12;6.70;;;6.18;;
14241;SDS011;7205;50.864;12.766;2023-08-20T12:58:40;7.13;;;6.50;;
14241;SDS011;7205;50.864;12.766;2023-08-20T13:01:07;6.72;;;6.13;;
14241;SDS011;7205;50.864;12.766;2023-08-20T13:03:44;6.28;;;5.85;;
14241;SDS011;7205;50.864;12.766;2023-08-20T13:06:14;6.28;;;5.88;;
14241;SDS011;7205;50.864;12.766;2023-08-20T13:08:41;7.80;;;7.07;;
14241;SDS011;7205;50.864;12.766;2023-08-20T13:11:09;10.98;;;6.50;;
14241;SDS011;7205;50.864;12.766;2023-08-20T13:13:40;7.28;;;6.68;;
14241;SDS011;7205;50.864;12.766;2023-08-20T13:16:08;6.60;;;5.90;;
14241;SDS011;7205;50.864;12.766;2023-08-20T13:18:35;6.30;;;5.80;;
14241;SDS011;7205;50.864;12.766;2023-08-20T13:21:04;6.90;;;6.20;;
14241;SDS011;7205;50.864;12.766;2023-08-20T13:23:31;6.97;;;6.03;;
14241;SDS011;7205;50.864;12.766;2023-08-20T13:25:58;7.18;;;6.05;;
14241;SDS011;7205;50.864;12.766;2023-08-20T13:28:25;6.38;;;5.65;;
14241;SDS011;7205;50.864;12.766;2023-08-20T13:30:55;6.80;;;5.93;;
14241;SDS011;7205;50.864;12.766;2023-08-20T13:33:25;7.32;;;6.45;;
14241;SDS011;7205;50.864;12.766;2023-08-20T13:35:52;7.88;;;6.30;;
14241;SDS011;7205;50.864;12.766;2023-08-20T13:38:20;6.55;;;5.97;;
14241;SDS011;7205;50.864;12.766;2023-08-20T13:40:47;7.45;;;5.82;;
14241;SDS011;7205;50.864;12.766;2023-08-20T13:43:14;6.63;;;6.05;;
14241;SDS011;7205;50.864;12.766;2023-08-20T13:45:41;7.00;;;5.97;;
14241;SDS011;7205;50.864;12.766;2023-08-20T13:48:08;9.70;;;6.22;;
14241;SDS011;7205;50.864;12.766;2023-08-20T13:50:34;6.85;;;6.35;;
14241;SDS011;7205;50.864;12.766;2023-08-20T13:53:01;6.47;;;5.88;;
14241;SDS011;7205;50.864;12.766;2023-08-20T13:55:30;6.03;;;5.50;;
14241;SDS011;7205;50.864;12.766;2023-08-20T13:57:57;6.25;;;5.70;;
14241;SDS011;7205;50.864;12.766;2023-08-20T14:00:24;6.70;;;5.53;;
14241;SDS011;7205;50.864;12.766;2023-08-20T14:02:51;5.72;;;5.32;;
14241;SDS011;7205;50.864;12.766;2023-08-20T14:05:17;5.55;;;5.13;;
14241;SDS011;7205;50.864;12.766;2023-08-20T14:07:44;7.70;;;6.18;;
14241;SDS011;7205;50.864;12.766;2023-08-20T14:10:11;6.78;;;5.32;;
14241;SDS011;7205;50.864;12.766;2023-08-20T14:12:39;6.45;;;5.35;;
14241;SDS011;7205;50.864;12.766;2023-08-20T14:15:07;6.40;;;5.97;;
14241;SDS011;7205;50.864;12.766;2023-08-20T14:17:36;8.90;;;5.93;;
14241;SDS011;7205;50.864;12.766;2023-08-20T14:20:03;6.47;;;5.90;;
14241;SDS011;7205;50.864;12.766;2023-08-20T14:22:32;6.63;;;6.03;;
14241;SDS011;7205;50.864;12.766;2023-08-20T14:24:58;7.43;;;5.95;;
14241;SDS011;7205;50.864;12.766;2023-08-20T14:27:25;6.60;;;5.80;;
14241;SDS011;7205;50.864;12.766;2023-08-20T14:29:53;6.32;;;5.93;;
14241;SDS011;7205;50.864;12.766;2023-08-20T14:32:20;6.07;;;5.57;;
14241;SDS011;7205;50.864;12.766;2023-08-20T14:34:47;6.10;;;5.60;;
14241;SDS011;7205;50.864;12.766;2023-08-20T14:37:14;8.25;;;6.25;;
14241;SDS011;7205;50.864;12.766;2023-08-20T14:39:41;6.05;;;4.97;;
14241;SDS011;7205;50.864;12.766;2023-08-20T14:42:07;7.07;;;5.57;;
14241;SDS011;7205;50.864;12.766;2023-08-20T14:44:34;5.72;;;5.15;;
14241;SDS011;7205;50.864;12.766;2023-08-20T14:47:03;6.07;;;5.57;;